sensor_id;sensor_type;location;lat;lon;timestamp;P1;durP1;ratioP1;P2;durP2;ratioP2
51636;SDS011;37713;53.254;6.460;2023-08-01T00:01:24;16.88;;;5.15;;
51636;SDS011;37713;53.254;6.460;2023-08-01T00:03:50;14.38;;;4.88;;
51636;SDS011;37713;53.254;6.460;2023-08-01T00:06:15;16.75;;;5.70;;
51636;SDS011;37713;53.254;6.460;2023-08-01T00:08:41;17.65;;;5.38;;
51636;SDS011;37713;53.254;6.460;2023-08-01T00:11:07;14.60;;;5.10;;
51636;SDS011;37713;53.254;6.460;2023-08-01T00:13:35;13.18;;;5.07;;
51636;SDS011;37713;53.254;6.460;2023-08-01T00:16:00;15.07;;;4.22;;
51636;SDS011;37713;53.254;6.460;2023-08-01T00:18:26;20.65;;;4.80;;
51636;SDS011;37713;53.254;6.460;2023-08-01T00:20:52;14.95;;;5.30;;
51636;SDS011;37713;53.254;6.460;2023-08-01T00:23:19;12.88;;;4.72;;
51636;SDS011;37713;53.254;6.460;2023-08-01T00:25:45;15.30;;;4.72;;
51636;SDS011;37713;53.254;6.460;2023-08-01T00:28:16;16.33;;;4.95;;
51636;SDS011;37713;53.254;6.460;2023-08-01T00:30:42;12.63;;;4.50;;
51636;SDS011;37713;53.254;6.460;2023-08-01T00:33:08;12.32;;;4.18;;
51636;SDS011;37713;53.254;6.460;2023-08-01T00:35:34;16.48;;;5.18;;
51636;SDS011;37713;53.254;6.460;2023-08-01T00:38:00;18.17;;;4.70;;
51636;SDS011;37713;53.254;6.460;2023-08-01T00:40:32;19.95;;;5.03;;
51636;SDS011;37713;53.254;6.460;2023-08-01T00:42:58;20.90;;;4.57;;
51636;SDS011;37713;53.254;6.460;2023-08-01T00:45:27;14.50;;;4.60;;
51636;SDS011;37713;53.254;6.460;2023-08-01T00:47:55;18.20;;;5.60;;
51636;SDS011;37713;53.254;6.460;2023-08-01T00:50:21;12.23;;;4.68;;
51636;SDS011;37713;53.254;6.460;2023-08-01T00:52:48;11.13;;;4.88;;
51636;SDS011;37713;53.254;6.460;2023-08-01T00:55:16;13.60;;;4.95;;
51636;SDS011;37713;53.254;6.460;2023-08-01T00:57:44;13.10;;;4.80;;
51636;SDS011;37713;53.254;6.460;2023-08-01T01:00:11;12.35;;;4.75;;
51636;SDS011;37713;53.254;6.460;2023-08-01T01:02:37;27.88;;;5.40;;
51636;SDS011;37713;53.254;6.460;2023-08-01T01:05:03;11.93;;;4.60;;
51636;SDS011;37713;53.254;6.460;2023-08-01T01:07:30;20.00;;;4.80;;
51636;SDS011;37713;53.254;6.460;2023-08-01T01:09:57;17.30;;;4.85;;
51636;SDS011;37713;53.254;6.460;2023-08-01T01:12:23;21.35;;;5.10;;
51636;SDS011;37713;53.254;6.460;2023-08-01T01:14:49;14.18;;;4.47;;
51636;SDS011;37713;53.254;6.460;2023-08-01T01:17:15;13.73;;;4.60;;
51636;SDS011;37713;53.254;6.460;2023-08-01T01:19:40;21.05;;;4.93;;
51636;SDS011;37713;53.254;6.460;2023-08-01T01:22:07;17.70;;;5.57;;
51636;SDS011;37713;53.254;6.460;2023-08-01T01:24:35;34.95;;;7.53;;
51636;SDS011;37713;53.254;6.460;2023-08-01T01:27:01;13.93;;;4.68;;
51636;SDS011;37713;53.254;6.460;2023-08-01T01:29:29;13.50;;;5.07;;
51636;SDS011;37713;53.254;6.460;2023-08-01T01:31:55;22.33;;;4.93;;
51636;SDS011;37713;53.254;6.460;2023-08-01T01:34:22;16.80;;;5.25;;
51636;SDS011;37713;53.254;6.460;2023-08-01T01:36:48;10.45;;;4.43;;
51636;SDS011;37713;53.254;6.460;2023-08-01T01:39:14;10.07;;;4.38;;
51636;SDS011;37713;53.254;6.460;2023-08-01T01:41:39;13.88;;;4.65;;
51636;SDS011;37713;53.254;6.460;2023-08-01T01:44:05;13.88;;;4.80;;
51636;SDS011;37713;53.254;6.460;2023-08-01T01:46:31;14.68;;;5.50;;
51636;SDS011;37713;53.254;6.460;2023-08-01T01:48:57;12.73;;;4.80;;
51636;SDS011;37713;53.254;6.460;2023-08-01T01:51:25;30.55;;;7.00;;
51636;SDS011;37713;53.254;6.460;2023-08-01T01:53:52;32.38;;;5.75;;
51636;SDS011;37713;53.254;6.460;2023-08-01T01:56:18;15.40;;;4.97;;
51636;SDS011;37713;53.254;6.460;2023-08-01T01:58:43;15.40;;;5.38;;
51636;SDS011;37713;53.254;6.460;2023-08-01T02:01:09;16.92;;;5.20;;
51636;SDS011;37713;53.254;6.460;2023-08-01T02:03:35;16.17;;;4.55;;
51636;SDS011;37713;53.254;6.460;2023-08-01T02:06:01;14.40;;;5.07;;
51636;SDS011;37713;53.254;6.460;2023-08-01T02:08:31;12.27;;;4.45;;
51636;SDS011;37713;53.254;6.460;2023-08-01T02:10:56;19.73;;;5.05;;
51636;SDS011;37713;53.254;6.460;2023-08-01T02:13:26;13.32;;;4.45;;
51636;SDS011;37713;53.254;6.460;2023-08-01T02:15:53;16.15;;;4.63;;
51636;SDS011;37713;53.254;6.460;2023-08-01T02:18:20;13.77;;;5.07;;
51636;SDS011;37713;53.254;6.460;2023-08-01T02:20:46;30.48;;;6.57;;
51636;SDS011;37713;53.254;6.460;2023-08-01T02:23:11;14.95;;;4.97;;
51636;SDS011;37713;53.254;6.460;2023-08-01T02:25:41;12.57;;;4.40;;
51636;SDS011;37713;53.254;6.460;2023-08-01T02:28:07;14.55;;;4.60;;
51636;SDS011;37713;53.254;6.460;2023-08-01T02:30:33;12.27;;;4.38;;
51636;SDS011;37713;53.254;6.460;2023-08-01T02:33:00;14.45;;;4.90;;
51636;SDS011;37713;53.254;6.460;2023-08-01T02:35:26;22.98;;;4.63;;
51636;SDS011;37713;53.254;6.460;2023-08-01T02:37:53;16.48;;;5.80;;
51636;SDS011;37713;53.254;6.460;2023-08-01T02:40:19;24.92;;;4.95;;
51636;SDS011;37713;53.254;6.460;2023-08-01T02:42:45;16.92;;;4.78;;
51636;SDS011;37713;53.254;6.460;2023-08-01T02:45:10;16.67;;;5.15;;
51636;SDS011;37713;53.254;6.460;2023-08-01T02:47:36;17.88;;;5.05;;
51636;SDS011;37713;53.254;6.460;2023-08-01T02:50:02;13.57;;;4.95;;
51636;SDS011;37713;53.254;6.460;2023-08-01T02:52:28;16.00;;;5.22;;
51636;SDS011;37713;53.254;6.460;2023-08-01T02:54:54;16.98;;;5.35;;
51636;SDS011;37713;53.254;6.460;2023-08-01T02:57:20;13.25;;;4.80;;
51636;SDS011;37713;53.254;6.460;2023-08-01T02:59:45;15.00;;;4.85;;
51636;SDS011;37713;53.254;6.460;2023-08-01T03:02:12;10.52;;;4.53;;
51636;SDS011;37713;53.254;6.460;2023-08-01T03:04:38;13.38;;;4.82;;
51636;SDS011;37713;53.254;6.460;2023-08-01T03:07:04;16.00;;;5.10;;
51636;SDS011;37713;53.254;6.460;2023-08-01T03:09:29;10.50;;;4.60;;
51636;SDS011;37713;53.254;6.460;2023-08-01T03:11:56;12.98;;;5.03;;
51636;SDS011;37713;53.254;6.460;2023-08-01T03:14:22;9.98;;;4.35;;
51636;SDS011;37713;53.254;6.460;2023-08-01T03:16:48;17.55;;;4.90;;
51636;SDS011;37713;53.254;6.460;2023-08-01T03:19:14;13.57;;;4.82;;
51636;SDS011;37713;53.254;6.460;2023-08-01T03:21:39;15.32;;;4.70;;
51636;SDS011;37713;53.254;6.460;2023-08-01T03:24:05;12.85;;;4.68;;
51636;SDS011;37713;53.254;6.460;2023-08-01T03:26:36;13.25;;;4.53;;
51636;SDS011;37713;53.254;6.460;2023-08-01T03:29:03;16.77;;;5.25;;
51636;SDS011;37713;53.254;6.460;2023-08-01T03:31:30;11.43;;;3.92;;
51636;SDS011;37713;53.254;6.460;2023-08-01T03:33:56;9.18;;;3.95;;
51636;SDS011;37713;53.254;6.460;2023-08-01T03:36:24;10.25;;;4.25;;
51636;SDS011;37713;53.254;6.460;2023-08-01T03:38:50;11.30;;;4.28;;
51636;SDS011;37713;53.254;6.460;2023-08-01T03:41:16;12.10;;;4.63;;
51636;SDS011;37713;53.254;6.460;2023-08-01T03:43:41;12.32;;;4.53;;
51636;SDS011;37713;53.254;6.460;2023-08-01T03:46:07;9.88;;;4.10;;
51636;SDS011;37713;53.254;6.460;2023-08-01T03:48:34;13.38;;;4.50;;
51636;SDS011;37713;53.254;6.460;2023-08-01T03:51:00;13.63;;;4.10;;
51636;SDS011;37713;53.254;6.460;2023-08-01T03:53:28;11.98;;;3.75;;
51636;SDS011;37713;53.254;6.460;2023-08-01T03:55:54;12.30;;;3.85;;
51636;SDS011;37713;53.254;6.460;2023-08-01T03:58:19;14.32;;;4.25;;
51636;SDS011;37713;53.254;6.460;2023-08-01T04:00:45;10.02;;;3.60;;
51636;SDS011;37713;53.254;6.460;2023-08-01T04:03:11;8.82;;;3.50;;
51636;SDS011;37713;53.254;6.460;2023-08-01T04:05:37;12.93;;;3.92;;
51636;SDS011;37713;53.254;6.460;2023-08-01T04:08:03;10.18;;;3.40;;
51636;SDS011;37713;53.254;6.460;2023-08-01T04:10:28;9.93;;;3.30;;
51636;SDS011;37713;53.254;6.460;2023-08-01T04:12:54;10.13;;;3.33;;
51636;SDS011;37713;53.254;6.460;2023-08-01T04:15:20;9.75;;;3.47;;
51636;SDS011;37713;53.254;6.460;2023-08-01T04:17:46;21.40;;;3.67;;
51636;SDS011;37713;53.254;6.460;2023-08-01T04:20:12;13.57;;;3.30;;
51636;SDS011;37713;53.254;6.460;2023-08-01T04:22:38;8.68;;;2.85;;
51636;SDS011;37713;53.254;6.460;2023-08-01T04:25:04;11.23;;;3.13;;
51636;SDS011;37713;53.254;6.460;2023-08-01T04:27:30;11.77;;;3.13;;
51636;SDS011;37713;53.254;6.460;2023-08-01T04:29:56;8.80;;;2.60;;
51636;SDS011;37713;53.254;6.460;2023-08-01T04:32:22;25.77;;;3.50;;
51636;SDS011;37713;53.254;6.460;2023-08-01T04:34:47;11.93;;;2.60;;
51636;SDS011;37713;53.254;6.460;2023-08-01T04:37:13;14.65;;;2.80;;
51636;SDS011;37713;53.254;6.460;2023-08-01T04:39:39;9.80;;;2.58;;
51636;SDS011;37713;53.254;6.460;2023-08-01T04:42:05;8.63;;;2.40;;
51636;SDS011;37713;53.254;6.460;2023-08-01T04:44:31;14.70;;;2.90;;
51636;SDS011;37713;53.254;6.460;2023-08-01T04:46:57;7.78;;;2.35;;
51636;SDS011;37713;53.254;6.460;2023-08-01T04:49:23;13.80;;;2.80;;
51636;SDS011;37713;53.254;6.460;2023-08-01T04:51:50;10.50;;;2.50;;
51636;SDS011;37713;53.254;6.460;2023-08-01T04:54:16;14.50;;;3.25;;
51636;SDS011;37713;53.254;6.460;2023-08-01T04:56:42;21.20;;;3.97;;
51636;SDS011;37713;53.254;6.460;2023-08-01T04:59:07;11.07;;;2.85;;
51636;SDS011;37713;53.254;6.460;2023-08-01T05:01:33;17.00;;;3.55;;
51636;SDS011;37713;53.254;6.460;2023-08-01T05:03:59;12.85;;;2.70;;
51636;SDS011;37713;53.254;6.460;2023-08-01T05:06:25;13.15;;;2.80;;
51636;SDS011;37713;53.254;6.460;2023-08-01T05:08:52;10.18;;;2.78;;
51636;SDS011;37713;53.254;6.460;2023-08-01T05:11:18;11.35;;;2.75;;
51636;SDS011;37713;53.254;6.460;2023-08-01T05:13:44;21.58;;;2.90;;
51636;SDS011;37713;53.254;6.460;2023-08-01T05:16:10;10.90;;;2.40;;
51636;SDS011;37713;53.254;6.460;2023-08-01T05:18:36;11.50;;;2.30;;
51636;SDS011;37713;53.254;6.460;2023-08-01T05:21:02;10.38;;;2.17;;
51636;SDS011;37713;53.254;6.460;2023-08-01T05:23:27;10.20;;;2.10;;
51636;SDS011;37713;53.254;6.460;2023-08-01T05:25:53;8.18;;;2.50;;
51636;SDS011;37713;53.254;6.460;2023-08-01T05:28:19;8.80;;;2.20;;
51636;SDS011;37713;53.254;6.460;2023-08-01T05:30:45;8.65;;;2.75;;
51636;SDS011;37713;53.254;6.460;2023-08-01T05:33:10;10.32;;;2.30;;
51636;SDS011;37713;53.254;6.460;2023-08-01T05:35:36;12.05;;;2.50;;
51636;SDS011;37713;53.254;6.460;2023-08-01T05:38:02;11.30;;;2.45;;
51636;SDS011;37713;53.254;6.460;2023-08-01T05:40:28;6.57;;;2.10;;
51636;SDS011;37713;53.254;6.460;2023-08-01T05:42:53;8.88;;;2.30;;
51636;SDS011;37713;53.254;6.460;2023-08-01T05:45:19;7.03;;;2.35;;
51636;SDS011;37713;53.254;6.460;2023-08-01T05:47:45;8.95;;;2.83;;
51636;SDS011;37713;53.254;6.460;2023-08-01T05:50:11;9.23;;;2.50;;
51636;SDS011;37713;53.254;6.460;2023-08-01T05:52:37;6.93;;;1.95;;
51636;SDS011;37713;53.254;6.460;2023-08-01T05:55:03;8.77;;;2.47;;
51636;SDS011;37713;53.254;6.460;2023-08-01T05:57:29;7.30;;;2.28;;
51636;SDS011;37713;53.254;6.460;2023-08-01T05:59:55;14.00;;;2.25;;
51636;SDS011;37713;53.254;6.460;2023-08-01T06:02:21;9.27;;;2.65;;
51636;SDS011;37713;53.254;6.460;2023-08-01T06:04:47;10.68;;;2.70;;
51636;SDS011;37713;53.254;6.460;2023-08-01T06:07:13;12.60;;;2.40;;
51636;SDS011;37713;53.254;6.460;2023-08-01T06:09:38;9.63;;;2.60;;
51636;SDS011;37713;53.254;6.460;2023-08-01T06:12:04;7.28;;;2.30;;
51636;SDS011;37713;53.254;6.460;2023-08-01T06:14:30;10.57;;;2.28;;
51636;SDS011;37713;53.254;6.460;2023-08-01T06:16:56;9.27;;;2.55;;
51636;SDS011;37713;53.254;6.460;2023-08-01T06:19:22;8.80;;;2.25;;
51636;SDS011;37713;53.254;6.460;2023-08-01T06:21:48;7.20;;;2.00;;
51636;SDS011;37713;53.254;6.460;2023-08-01T06:24:13;6.32;;;1.92;;
51636;SDS011;37713;53.254;6.460;2023-08-01T06:26:39;6.13;;;2.08;;
51636;SDS011;37713;53.254;6.460;2023-08-01T06:29:05;10.38;;;2.40;;
51636;SDS011;37713;53.254;6.460;2023-08-01T06:31:31;8.75;;;2.30;;
51636;SDS011;37713;53.254;6.460;2023-08-01T06:33:57;6.57;;;2.20;;
51636;SDS011;37713;53.254;6.460;2023-08-01T06:36:22;8.38;;;1.92;;
51636;SDS011;37713;53.254;6.460;2023-08-01T06:38:48;9.07;;;1.92;;
51636;SDS011;37713;53.254;6.460;2023-08-01T06:41:14;7.57;;;2.25;;
51636;SDS011;37713;53.254;6.460;2023-08-01T06:43:40;13.38;;;2.75;;
51636;SDS011;37713;53.254;6.460;2023-08-01T06:46:06;7.22;;;2.20;;
51636;SDS011;37713;53.254;6.460;2023-08-01T06:48:32;6.28;;;1.77;;
51636;SDS011;37713;53.254;6.460;2023-08-01T06:51:01;5.68;;;1.55;;
51636;SDS011;37713;53.254;6.460;2023-08-01T06:53:29;6.32;;;1.52;;
51636;SDS011;37713;53.254;6.460;2023-08-01T06:55:55;4.13;;;1.42;;
51636;SDS011;37713;53.254;6.460;2023-08-01T06:58:21;5.13;;;1.50;;
51636;SDS011;37713;53.254;6.460;2023-08-01T07:00:46;6.38;;;1.63;;
51636;SDS011;37713;53.254;6.460;2023-08-01T07:03:12;6.63;;;1.52;;
51636;SDS011;37713;53.254;6.460;2023-08-01T07:05:38;7.70;;;1.70;;
51636;SDS011;37713;53.254;6.460;2023-08-01T07:08:04;5.07;;;1.27;;
51636;SDS011;37713;53.254;6.460;2023-08-01T07:10:29;6.82;;;1.60;;
51636;SDS011;37713;53.254;6.460;2023-08-01T07:12:59;6.13;;;1.38;;
51636;SDS011;37713;53.254;6.460;2023-08-01T07:15:27;5.05;;;1.30;;
51636;SDS011;37713;53.254;6.460;2023-08-01T07:17:52;5.85;;;1.00;;
51636;SDS011;37713;53.254;6.460;2023-08-01T07:20:18;5.45;;;1.40;;
51636;SDS011;37713;53.254;6.460;2023-08-01T07:22:44;8.43;;;1.60;;
51636;SDS011;37713;53.254;6.460;2023-08-01T07:25:10;6.22;;;1.30;;
51636;SDS011;37713;53.254;6.460;2023-08-01T07:27:36;5.93;;;1.30;;
51636;SDS011;37713;53.254;6.460;2023-08-01T07:30:03;8.75;;;1.42;;
51636;SDS011;37713;53.254;6.460;2023-08-01T07:32:30;10.65;;;1.60;;
51636;SDS011;37713;53.254;6.460;2023-08-01T07:34:56;10.70;;;1.75;;
51636;SDS011;37713;53.254;6.460;2023-08-01T07:37:22;7.03;;;1.77;;
51636;SDS011;37713;53.254;6.460;2023-08-01T07:39:49;5.80;;;1.30;;
51636;SDS011;37713;53.254;6.460;2023-08-01T07:42:15;7.85;;;1.50;;
51636;SDS011;37713;53.254;6.460;2023-08-01T07:44:41;9.50;;;1.70;;
51636;SDS011;37713;53.254;6.460;2023-08-01T07:47:06;8.70;;;1.52;;
51636;SDS011;37713;53.254;6.460;2023-08-01T07:49:33;8.75;;;2.20;;
51636;SDS011;37713;53.254;6.460;2023-08-01T07:51:59;9.73;;;1.30;;
51636;SDS011;37713;53.254;6.460;2023-08-01T07:54:24;8.88;;;1.42;;
51636;SDS011;37713;53.254;6.460;2023-08-01T07:56:50;6.45;;;1.20;;
51636;SDS011;37713;53.254;6.460;2023-08-01T07:59:16;8.48;;;1.20;;
51636;SDS011;37713;53.254;6.460;2023-08-01T08:01:42;9.15;;;1.20;;
51636;SDS011;37713;53.254;6.460;2023-08-01T08:04:07;7.03;;;1.42;;
51636;SDS011;37713;53.254;6.460;2023-08-01T08:06:33;5.00;;;1.30;;
51636;SDS011;37713;53.254;6.460;2023-08-01T08:08:59;9.02;;;1.42;;
51636;SDS011;37713;53.254;6.460;2023-08-01T08:11:25;6.18;;;1.38;;
51636;SDS011;37713;53.254;6.460;2023-08-01T08:13:50;9.27;;;1.35;;
51636;SDS011;37713;53.254;6.460;2023-08-01T08:16:16;7.35;;;1.52;;
51636;SDS011;37713;53.254;6.460;2023-08-01T08:18:42;12.88;;;2.20;;
51636;SDS011;37713;53.254;6.460;2023-08-01T08:21:08;6.30;;;1.40;;
51636;SDS011;37713;53.254;6.460;2023-08-01T08:23:33;6.03;;;1.08;;
51636;SDS011;37713;53.254;6.460;2023-08-01T08:25:59;4.28;;;1.00;;
51636;SDS011;37713;53.254;6.460;2023-08-01T08:28:29;4.65;;;0.85;;
51636;SDS011;37713;53.254;6.460;2023-08-01T08:30:56;6.95;;;1.40;;
51636;SDS011;37713;53.254;6.460;2023-08-01T08:33:22;5.25;;;1.15;;
51636;SDS011;37713;53.254;6.460;2023-08-01T08:35:48;5.75;;;1.08;;
51636;SDS011;37713;53.254;6.460;2023-08-01T08:38:14;7.65;;;1.45;;
51636;SDS011;37713;53.254;6.460;2023-08-01T08:40:41;5.18;;;1.00;;
51636;SDS011;37713;53.254;6.460;2023-08-01T08:43:19;4.82;;;1.20;;
51636;SDS011;37713;53.254;6.460;2023-08-01T08:45:45;5.00;;;1.50;;
51636;SDS011;37713;53.254;6.460;2023-08-01T08:48:13;6.53;;;1.20;;
51636;SDS011;37713;53.254;6.460;2023-08-01T08:50:44;6.22;;;1.70;;
51636;SDS011;37713;53.254;6.460;2023-08-01T08:53:11;9.85;;;1.77;;
51636;SDS011;37713;53.254;6.460;2023-08-01T08:55:41;6.85;;;1.40;;
51636;SDS011;37713;53.254;6.460;2023-08-01T08:58:07;8.70;;;1.55;;
51636;SDS011;37713;53.254;6.460;2023-08-01T09:00:35;6.70;;;1.70;;
51636;SDS011;37713;53.254;6.460;2023-08-01T09:03:02;8.20;;;2.28;;
51636;SDS011;37713;53.254;6.460;2023-08-01T09:05:30;6.68;;;1.75;;
51636;SDS011;37713;53.254;6.460;2023-08-01T09:07:59;9.18;;;1.80;;
51636;SDS011;37713;53.254;6.460;2023-08-01T09:10:32;9.73;;;1.80;;
51636;SDS011;37713;53.254;6.460;2023-08-01T09:12:58;4.10;;;1.38;;
51636;SDS011;37713;53.254;6.460;2023-08-01T09:15:25;7.43;;;1.55;;
51636;SDS011;37713;53.254;6.460;2023-08-01T09:17:54;6.97;;;1.58;;
51636;SDS011;37713;53.254;6.460;2023-08-01T09:20:28;10.20;;;1.80;;
51636;SDS011;37713;53.254;6.460;2023-08-01T09:22:55;10.25;;;1.95;;
51636;SDS011;37713;53.254;6.460;2023-08-01T09:25:30;9.70;;;1.80;;
51636;SDS011;37713;53.254;6.460;2023-08-01T09:27:57;7.00;;;1.23;;
51636;SDS011;37713;53.254;6.460;2023-08-01T09:30:23;4.65;;;1.17;;
51636;SDS011;37713;53.254;6.460;2023-08-01T09:32:53;3.17;;;0.90;;
51636;SDS011;37713;53.254;6.460;2023-08-01T09:35:19;4.45;;;0.95;;
51636;SDS011;37713;53.254;6.460;2023-08-01T09:37:46;3.72;;;0.60;;
51636;SDS011;37713;53.254;6.460;2023-08-01T09:40:13;4.18;;;0.80;;
51636;SDS011;37713;53.254;6.460;2023-08-01T09:42:44;7.07;;;1.30;;
51636;SDS011;37713;53.254;6.460;2023-08-01T09:45:13;7.20;;;1.27;;
51636;SDS011;37713;53.254;6.460;2023-08-01T09:47:41;7.22;;;1.10;;
51636;SDS011;37713;53.254;6.460;2023-08-01T09:50:11;6.15;;;1.35;;
51636;SDS011;37713;53.254;6.460;2023-08-01T09:52:45;8.73;;;1.50;;
51636;SDS011;37713;53.254;6.460;2023-08-01T09:55:29;7.82;;;1.58;;
51636;SDS011;37713;53.254;6.460;2023-08-01T09:57:58;8.95;;;2.17;;
51636;SDS011;37713;53.254;6.460;2023-08-01T10:00:28;8.85;;;2.13;;
51636;SDS011;37713;53.254;6.460;2023-08-01T10:02:58;11.20;;;1.50;;
51636;SDS011;37713;53.254;6.460;2023-08-01T10:05:31;7.07;;;1.70;;
51636;SDS011;37713;53.254;6.460;2023-08-01T10:07:59;6.13;;;1.58;;
51636;SDS011;37713;53.254;6.460;2023-08-01T10:10:27;6.55;;;1.90;;
51636;SDS011;37713;53.254;6.460;2023-08-01T10:12:54;6.85;;;1.40;;
51636;SDS011;37713;53.254;6.460;2023-08-01T10:15:21;8.80;;;1.45;;
51636;SDS011;37713;53.254;6.460;2023-08-01T10:17:48;7.85;;;1.65;;
51636;SDS011;37713;53.254;6.460;2023-08-01T10:20:14;6.82;;;1.80;;
51636;SDS011;37713;53.254;6.460;2023-08-01T10:22:41;16.48;;;1.65;;
51636;SDS011;37713;53.254;6.460;2023-08-01T10:25:08;9.73;;;1.50;;
51636;SDS011;37713;53.254;6.460;2023-08-01T10:27:35;6.43;;;1.42;;
51636;SDS011;37713;53.254;6.460;2023-08-01T10:30:04;10.13;;;2.08;;
51636;SDS011;37713;53.254;6.460;2023-08-01T10:34:58;6.72;;;1.60;;
51636;SDS011;37713;53.254;6.460;2023-08-01T10:37:24;7.72;;;1.55;;
51636;SDS011;37713;53.254;6.460;2023-08-01T10:39:57;5.82;;;1.40;;
51636;SDS011;37713;53.254;6.460;2023-08-01T10:42:24;7.90;;;1.70;;
51636;SDS011;37713;53.254;6.460;2023-08-01T10:44:50;5.13;;;1.42;;
51636;SDS011;37713;53.254;6.460;2023-08-01T10:47:26;5.20;;;1.30;;
51636;SDS011;37713;53.254;6.460;2023-08-01T10:49:52;9.57;;;1.42;;
51636;SDS011;37713;53.254;6.460;2023-08-01T10:52:19;5.28;;;1.45;;
51636;SDS011;37713;53.254;6.460;2023-08-01T10:55:02;8.43;;;1.70;;
51636;SDS011;37713;53.254;6.460;2023-08-01T10:57:31;9.32;;;1.60;;
51636;SDS011;37713;53.254;6.460;2023-08-01T10:59:59;8.57;;;1.40;;
51636;SDS011;37713;53.254;6.460;2023-08-01T11:02:25;5.93;;;1.40;;
51636;SDS011;37713;53.254;6.460;2023-08-01T11:04:59;7.22;;;1.88;;
51636;SDS011;37713;53.254;6.460;2023-08-01T11:07:27;9.00;;;1.55;;
51636;SDS011;37713;53.254;6.460;2023-08-01T11:10:09;7.50;;;1.65;;
51636;SDS011;37713;53.254;6.460;2023-08-01T11:12:37;9.35;;;1.40;;
51636;SDS011;37713;53.254;6.460;2023-08-01T11:15:11;6.32;;;1.33;;
51636;SDS011;37713;53.254;6.460;2023-08-01T11:17:42;8.50;;;1.80;;
51636;SDS011;37713;53.254;6.460;2023-08-01T11:20:13;6.93;;;1.30;;
51636;SDS011;37713;53.254;6.460;2023-08-01T11:23:00;7.97;;;1.30;;
51636;SDS011;37713;53.254;6.460;2023-08-01T11:25:41;6.35;;;1.45;;
51636;SDS011;37713;53.254;6.460;2023-08-01T11:28:11;11.98;;;1.50;;
51636;SDS011;37713;53.254;6.460;2023-08-01T11:30:38;6.03;;;1.30;;
51636;SDS011;37713;53.254;6.460;2023-08-01T11:33:21;12.13;;;1.60;;
51636;SDS011;37713;53.254;6.460;2023-08-01T11:35:55;5.85;;;1.00;;
51636;SDS011;37713;53.254;6.460;2023-08-01T11:38:23;9.75;;;1.30;;
51636;SDS011;37713;53.254;6.460;2023-08-01T11:40:50;7.70;;;1.20;;
51636;SDS011;37713;53.254;6.460;2023-08-01T11:43:17;6.03;;;1.13;;
51636;SDS011;37713;53.254;6.460;2023-08-01T11:45:50;4.82;;;1.25;;
51636;SDS011;37713;53.254;6.460;2023-08-01T11:48:23;5.95;;;1.40;;
51636;SDS011;37713;53.254;6.460;2023-08-01T11:50:49;6.15;;;1.30;;
51636;SDS011;37713;53.254;6.460;2023-08-01T11:53:21;8.93;;;1.25;;
51636;SDS011;37713;53.254;6.460;2023-08-01T11:55:51;6.85;;;1.10;;
51636;SDS011;37713;53.254;6.460;2023-08-01T12:01:01;5.53;;;1.25;;
51636;SDS011;37713;53.254;6.460;2023-08-01T12:03:44;8.75;;;1.25;;
51636;SDS011;37713;53.254;6.460;2023-08-01T12:06:14;7.80;;;1.20;;
51636;SDS011;37713;53.254;6.460;2023-08-01T12:08:44;4.82;;;1.10;;
51636;SDS011;37713;53.254;6.460;2023-08-01T12:11:23;6.43;;;1.20;;
51636;SDS011;37713;53.254;6.460;2023-08-01T12:14:03;5.60;;;1.40;;
51636;SDS011;37713;53.254;6.460;2023-08-01T12:16:32;7.28;;;1.40;;
51636;SDS011;37713;53.254;6.460;2023-08-01T12:18:58;6.88;;;1.60;;
51636;SDS011;37713;53.254;6.460;2023-08-01T12:21:24;7.78;;;1.13;;
51636;SDS011;37713;53.254;6.460;2023-08-01T12:23:50;8.45;;;1.50;;
51636;SDS011;37713;53.254;6.460;2023-08-01T12:26:16;6.72;;;1.55;;
51636;SDS011;37713;53.254;6.460;2023-08-01T12:28:41;6.47;;;1.60;;
51636;SDS011;37713;53.254;6.460;2023-08-01T12:31:07;3.95;;;1.20;;
51636;SDS011;37713;53.254;6.460;2023-08-01T12:33:33;9.25;;;1.98;;
51636;SDS011;37713;53.254;6.460;2023-08-01T12:35:59;6.90;;;1.90;;
51636;SDS011;37713;53.254;6.460;2023-08-01T12:38:25;9.95;;;1.80;;
51636;SDS011;37713;53.254;6.460;2023-08-01T12:40:51;7.05;;;1.73;;
51636;SDS011;37713;53.254;6.460;2023-08-01T12:43:17;5.03;;;1.40;;
51636;SDS011;37713;53.254;6.460;2023-08-01T12:45:43;10.45;;;2.05;;
51636;SDS011;37713;53.254;6.460;2023-08-01T12:48:09;8.45;;;1.67;;
51636;SDS011;37713;53.254;6.460;2023-08-01T12:50:35;8.27;;;1.67;;
51636;SDS011;37713;53.254;6.460;2023-08-01T12:53:00;9.85;;;1.73;;
51636;SDS011;37713;53.254;6.460;2023-08-01T12:55:26;8.38;;;2.03;;
51636;SDS011;37713;53.254;6.460;2023-08-01T12:57:52;9.48;;;1.95;;
51636;SDS011;37713;53.254;6.460;2023-08-01T13:00:18;8.10;;;1.65;;
51636;SDS011;37713;53.254;6.460;2023-08-01T13:02:43;8.52;;;2.00;;
51636;SDS011;37713;53.254;6.460;2023-08-01T13:05:09;10.20;;;1.92;;
51636;SDS011;37713;53.254;6.460;2023-08-01T13:07:35;7.75;;;2.20;;
51636;SDS011;37713;53.254;6.460;2023-08-01T13:10:01;10.38;;;1.98;;
51636;SDS011;37713;53.254;6.460;2023-08-01T13:12:27;7.65;;;1.65;;
51636;SDS011;37713;53.254;6.460;2023-08-01T13:14:53;12.18;;;2.22;;
51636;SDS011;37713;53.254;6.460;2023-08-01T13:17:19;10.50;;;1.98;;
51636;SDS011;37713;53.254;6.460;2023-08-01T13:19:45;8.55;;;1.80;;
51636;SDS011;37713;53.254;6.460;2023-08-01T13:22:11;9.40;;;1.33;;
51636;SDS011;37713;53.254;6.460;2023-08-01T13:24:36;7.60;;;1.45;;
51636;SDS011;37713;53.254;6.460;2023-08-01T13:27:02;6.63;;;1.23;;
51636;SDS011;37713;53.254;6.460;2023-08-01T13:29:28;6.57;;;1.50;;
51636;SDS011;37713;53.254;6.460;2023-08-01T13:31:54;5.82;;;1.30;;
51636;SDS011;37713;53.254;6.460;2023-08-01T13:34:20;10.02;;;1.90;;
51636;SDS011;37713;53.254;6.460;2023-08-01T13:36:45;7.50;;;1.80;;
51636;SDS011;37713;53.254;6.460;2023-08-01T13:39:11;7.45;;;1.60;;
51636;SDS011;37713;53.254;6.460;2023-08-01T13:41:37;8.50;;;1.90;;
51636;SDS011;37713;53.254;6.460;2023-08-01T13:44:03;4.95;;;1.67;;
51636;SDS011;37713;53.254;6.460;2023-08-01T13:46:28;8.68;;;1.80;;
51636;SDS011;37713;53.254;6.460;2023-08-01T13:48:54;8.27;;;1.48;;
51636;SDS011;37713;53.254;6.460;2023-08-01T13:51:20;6.57;;;1.65;;
51636;SDS011;37713;53.254;6.460;2023-08-01T13:53:46;8.40;;;1.52;;
51636;SDS011;37713;53.254;6.460;2023-08-01T13:56:12;8.13;;;1.70;;
51636;SDS011;37713;53.254;6.460;2023-08-01T13:58:38;6.53;;;1.40;;
51636;SDS011;37713;53.254;6.460;2023-08-01T14:01:08;8.88;;;1.30;;
51636;SDS011;37713;53.254;6.460;2023-08-01T14:03:35;7.40;;;1.50;;
51636;SDS011;37713;53.254;6.460;2023-08-01T14:08:30;6.18;;;1.20;;
51636;SDS011;37713;53.254;6.460;2023-08-01T14:10:56;5.00;;;1.13;;
51636;SDS011;37713;53.254;6.460;2023-08-01T14:13:22;5.57;;;1.17;;
51636;SDS011;37713;53.254;6.460;2023-08-01T14:15:48;7.85;;;1.30;;
51636;SDS011;37713;53.254;6.460;2023-08-01T14:18:13;7.68;;;1.40;;
51636;SDS011;37713;53.254;6.460;2023-08-01T14:20:39;7.45;;;1.40;;
51636;SDS011;37713;53.254;6.460;2023-08-01T14:23:05;6.82;;;1.67;;
51636;SDS011;37713;53.254;6.460;2023-08-01T14:25:31;4.55;;;1.10;;
51636;SDS011;37713;53.254;6.460;2023-08-01T14:27:57;7.43;;;1.48;;
51636;SDS011;37713;53.254;6.460;2023-08-01T14:30:22;8.25;;;1.30;;
51636;SDS011;37713;53.254;6.460;2023-08-01T14:32:49;3.70;;;1.00;;
51636;SDS011;37713;53.254;6.460;2023-08-01T14:35:14;7.00;;;1.40;;
51636;SDS011;37713;53.254;6.460;2023-08-01T14:37:40;6.85;;;1.55;;
51636;SDS011;37713;53.254;6.460;2023-08-01T14:42:36;8.43;;;1.70;;
51636;SDS011;37713;53.254;6.460;2023-08-01T14:45:01;7.95;;;1.63;;
51636;SDS011;37713;53.254;6.460;2023-08-01T14:47:27;7.55;;;1.90;;
51636;SDS011;37713;53.254;6.460;2023-08-01T14:49:55;5.35;;;1.50;;
51636;SDS011;37713;53.254;6.460;2023-08-01T14:52:21;5.78;;;1.40;;